createdAt,value
2023-11-23T00:01:21.219Z,98132.56
2023-11-23T00:03:49.796Z,98136.56
2023-11-23T00:06:18.243Z,98147.53
2023-11-23T00:08:46.926Z,98149.59
2023-11-23T00:11:15.383Z,98142.66
2023-11-23T00:13:44.127Z,98128.63
2023-11-23T00:16:12.513Z,98132.22
2023-11-23T00:18:41.144Z,98137.22
2023-11-23T00:21:09.691Z,98137.72
2023-11-23T00:23:38.111Z,98134.84
2023-11-23T00:26:07.384Z,98144.97
2023-11-23T00:28:36.707Z,98126.97
2023-11-23T00:31:05.095Z,98116.63
2023-11-23T00:33:34.305Z,98106.88
2023-11-23T00:36:04.605Z,98118.88
2023-11-23T00:38:33.088Z,98113.53
2023-11-23T00:41:02.475Z,98115.06
2023-11-23T00:43:30.843Z,98119.75
2023-11-23T00:45:59.711Z,98106.81
2023-11-23T00:48:29.421Z,98106.41
2023-11-23T00:50:57.904Z,98102.28
2023-11-23T00:53:26.492Z,98104.47
2023-11-23T00:55:59.768Z,98111.34
2023-11-23T00:58:28.261Z,98114.72
2023-11-23T01:00:58.725Z,98124.50
2023-11-23T01:03:28.351Z,98133.28
2023-11-23T01:05:58.001Z,98120.00
2023-11-23T01:08:26.555Z,98123.53
2023-11-23T01:10:55.008Z,98117.44
2023-11-23T01:13:23.442Z,98115.38
2023-11-23T01:15:51.853Z,98114.34
2023-11-23T01:18:21.691Z,98114.34
2023-11-23T01:20:50.596Z,98119.34
2023-11-23T01:23:19.115Z,98116.47
2023-11-23T01:25:47.582Z,98114.44
2023-11-23T01:28:16.131Z,98124.81
2023-11-23T01:30:44.964Z,98119.75
2023-11-23T01:33:13.830Z,98124.75
2023-11-23T01:35:42.310Z,98124.06
2023-11-23T01:38:10.935Z,98123.63
2023-11-23T01:40:39.604Z,98117.09
2023-11-23T01:43:11.726Z,98104.75
2023-11-23T01:45:40.293Z,98115.34
2023-11-23T01:48:08.992Z,98120.19
2023-11-23T01:50:39.354Z,98124.50
2023-11-23T01:53:09.732Z,98113.41
2023-11-23T01:55:38.356Z,98117.38
2023-11-23T01:58:08.459Z,98124.22
2023-11-23T02:00:38.937Z,98124.44
2023-11-23T02:03:08.194Z,98122.16
2023-11-23T02:05:36.809Z,98123.69
2023-11-23T02:08:06.715Z,98130.06
2023-11-23T02:10:35.383Z,98127.31
2023-11-23T02:13:04.838Z,98118.53
2023-11-23T02:15:38.767Z,98115.69
2023-11-23T02:18:12.228Z,98095.56
2023-11-23T02:20:43.698Z,98090.00
2023-11-23T02:23:12.126Z,98092.31
2023-11-23T02:25:40.673Z,98090.78
2023-11-23T02:28:10.107Z,98091.28
2023-11-23T02:30:38.467Z,98083.28
2023-11-23T02:33:10.161Z,98093.81
2023-11-23T02:35:39.762Z,98085.13
2023-11-23T02:38:08.442Z,98091.84
2023-11-23T02:40:37.009Z,98087.38
2023-11-23T02:43:07.149Z,98093.59
2023-11-23T02:45:37.745Z,98093.44
2023-11-23T02:48:06.611Z,98098.16
2023-11-23T02:50:35.578Z,98097.63
2023-11-23T02:53:05.783Z,98097.00
2023-11-23T02:55:34.134Z,98101.22
2023-11-23T02:58:02.562Z,98109.22
2023-11-23T03:00:32.180Z,98111.94
2023-11-23T03:03:01.122Z,98109.16
2023-11-23T03:05:29.588Z,98098.41
2023-11-23T03:07:58.326Z,98108.28
2023-11-23T03:10:26.739Z,98101.38
2023-11-23T03:12:55.173Z,98106.16
2023-11-23T03:15:24.074Z,98109.53
2023-11-23T03:17:54.357Z,98109.41
2023-11-23T03:20:22.969Z,98110.34
2023-11-23T03:22:51.355Z,98106.41
2023-11-23T03:25:19.982Z,98104.63
2023-11-23T03:27:48.371Z,98097.66
2023-11-23T03:30:18.556Z,98106.91
2023-11-23T03:32:48.110Z,98112.97
2023-11-23T03:35:16.694Z,98109.03
2023-11-23T03:37:45.086Z,98102.56
2023-11-23T03:40:14.673Z,98086.97
2023-11-23T03:42:43.219Z,98089.19
2023-11-23T03:45:12.397Z,98088.41
2023-11-23T03:47:40.811Z,98090.28
2023-11-23T03:50:09.749Z,98090.94
2023-11-23T03:52:38.202Z,98088.25
2023-11-23T03:55:06.939Z,98090.38
2023-11-23T03:57:36.147Z,98083.84
2023-11-23T04:00:05.033Z,98084.97
2023-11-23T04:02:34.682Z,98084.34
2023-11-23T04:05:03.328Z,98089.50
2023-11-23T04:07:32.486Z,98083.72
2023-11-23T04:10:01.011Z,98075.22
2023-11-23T04:12:30.450Z,98091.31
2023-11-23T04:14:59.370Z,98086.31
2023-11-23T04:17:27.729Z,98082.66
2023-11-23T04:19:56.750Z,98084.44
2023-11-23T04:22:25.280Z,98089.09
2023-11-23T04:24:53.949Z,98078.38
2023-11-23T04:27:22.341Z,98085.59
2023-11-23T04:29:50.740Z,98075.97
2023-11-23T04:32:19.224Z,98072.97
2023-11-23T04:34:48.506Z,98071.75
2023-11-23T04:37:17.554Z,98072.72
2023-11-23T04:39:45.853Z,98079.25
2023-11-23T04:42:14.379Z,98070.41
2023-11-23T04:44:42.845Z,98066.75
2023-11-23T04:47:11.143Z,98068.34
2023-11-23T04:49:40.213Z,98068.09
2023-11-23T04:52:08.572Z,98065.38
2023-11-23T04:54:37.105Z,98062.50
2023-11-23T04:57:05.788Z,98060.56
2023-11-23T04:59:35.160Z,98061.03
2023-11-23T05:02:04.454Z,98062.78
2023-11-23T05:04:33.453Z,98057.69
2023-11-23T05:07:01.826Z,98068.03
2023-11-23T05:09:30.236Z,98057.53
2023-11-23T05:12:00.038Z,98053.41
2023-11-23T05:14:28.421Z,98060.47
2023-11-23T05:16:56.809Z,98061.75
2023-11-23T05:19:35.927Z,98052.88
2023-11-23T05:22:11.737Z,98046.22
2023-11-23T05:24:40.587Z,98053.31
2023-11-23T05:27:09.038Z,98054.19
2023-11-23T05:29:38.334Z,98058.09
2023-11-23T05:32:06.955Z,98056.31
2023-11-23T05:34:35.343Z,98053.22
2023-11-23T05:37:04.366Z,98048.25
2023-11-23T05:39:34.030Z,98055.69
2023-11-23T05:42:03.048Z,98052.81
2023-11-23T05:44:32.070Z,98043.00
2023-11-23T05:47:01.379Z,98040.75
2023-11-23T05:49:30.341Z,98038.09
2023-11-23T05:51:58.738Z,98047.00
2023-11-23T05:54:27.807Z,98052.69
2023-11-23T05:56:56.221Z,98039.00
2023-11-23T05:59:24.677Z,98043.31
2023-11-23T06:01:54.362Z,98048.97
2023-11-23T06:04:23.936Z,98049.06
2023-11-23T06:06:53.337Z,98050.09
2023-11-23T06:09:21.805Z,98044.63
2023-11-23T06:11:51.550Z,98041.72
2023-11-23T06:14:19.921Z,98035.44
2023-11-23T06:16:48.346Z,98029.56
2023-11-23T06:19:16.685Z,98035.53
2023-11-23T06:21:45.193Z,98039.31
2023-11-23T06:24:14.035Z,98031.97
2023-11-23T06:26:43.267Z,98021.41
2023-11-23T06:29:12.758Z,98021.38
2023-11-23T06:31:41.267Z,98022.50
2023-11-23T06:34:09.745Z,98021.03
2023-11-23T06:36:46.351Z,98016.69
2023-11-23T06:39:25.514Z,98020.59
2023-11-23T06:41:54.347Z,98011.38
2023-11-23T06:44:23.091Z,98004.06
2023-11-23T06:46:52.114Z,98016.38
2023-11-23T06:49:21.348Z,98017.00
2023-11-23T06:51:50.284Z,98015.59
2023-11-23T06:54:18.715Z,98008.31
2023-11-23T06:56:47.143Z,98012.72
2023-11-23T06:59:16.300Z,98017.13
2023-11-23T07:01:45.928Z,98012.13
2023-11-23T07:04:15.348Z,98008.25
2023-11-23T07:06:44.369Z,97998.88
2023-11-23T07:09:15.555Z,97998.53
2023-11-23T07:11:43.990Z,97995.25
2023-11-23T07:14:12.427Z,97989.44
2023-11-23T07:16:41.999Z,97985.56
2023-11-23T07:19:10.450Z,97978.91
2023-11-23T07:21:38.924Z,97972.75
2023-11-23T07:24:07.821Z,97967.84
2023-11-23T07:26:36.767Z,97964.78
2023-11-23T07:29:05.100Z,97959.28
2023-11-23T07:31:33.610Z,97943.41
2023-11-23T07:34:02.140Z,97957.78
2023-11-23T07:36:32.018Z,97961.53
2023-11-23T07:39:00.770Z,97955.03
2023-11-23T07:41:29.716Z,97955.88
2023-11-23T07:43:59.644Z,97954.06
2023-11-23T07:46:28.157Z,97952.16
2023-11-23T07:48:56.645Z,97956.69
2023-11-23T07:51:25.881Z,97947.25
2023-11-23T07:53:55.055Z,97945.19
2023-11-23T07:56:24.156Z,97940.75
2023-11-23T07:58:52.595Z,97942.06
2023-11-23T08:01:22.051Z,97926.13
2023-11-23T08:03:50.777Z,97935.78
2023-11-23T08:06:20.599Z,97929.03
2023-11-23T08:08:49.469Z,97933.63
2023-11-23T08:11:18.967Z,97937.22
2023-11-23T08:13:48.739Z,97945.44
2023-11-23T08:16:17.514Z,97938.16
2023-11-23T08:18:50.148Z,97942.34
2023-11-23T08:21:19.190Z,97939.19
2023-11-23T08:23:48.079Z,97929.66
2023-11-23T08:26:17.717Z,97932.16
2023-11-23T08:28:46.202Z,97937.63
2023-11-23T08:31:14.654Z,97934.91
2023-11-23T08:33:43.119Z,97940.09
2023-11-23T08:36:12.075Z,97946.06
2023-11-23T08:38:40.510Z,97952.72
2023-11-23T08:41:10.082Z,97955.03
2023-11-23T08:43:40.870Z,97956.06
2023-11-23T08:46:09.912Z,97956.78
2023-11-23T08:48:38.388Z,97961.09
2023-11-23T08:51:07.817Z,97961.94
2023-11-23T08:53:36.768Z,97960.78
2023-11-23T08:56:05.362Z,97961.91
2023-11-23T08:58:34.808Z,97960.47
2023-11-23T09:01:04.325Z,97967.75
2023-11-23T09:03:34.476Z,97967.63
2023-11-23T09:06:05.399Z,97967.03
2023-11-23T09:08:35.530Z,97961.28
2023-11-23T09:11:04.051Z,97957.28
2023-11-23T09:13:34.182Z,97966.19
2023-11-23T09:16:03.706Z,97960.25
2023-11-23T09:18:32.455Z,97964.38
2023-11-23T09:21:02.078Z,97965.47
2023-11-23T09:23:30.496Z,97959.38
2023-11-23T09:26:01.384Z,97964.22
2023-11-23T09:28:30.280Z,97961.50
2023-11-23T09:30:58.643Z,97957.81
2023-11-23T09:33:28.389Z,97962.97
2023-11-23T09:35:57.044Z,97961.88
2023-11-23T09:38:26.873Z,97970.13
2023-11-23T09:41:00.485Z,97970.38
2023-11-23T09:43:31.461Z,97974.03
2023-11-23T09:46:00.078Z,97973.03
2023-11-23T09:48:30.199Z,97973.88
2023-11-23T09:50:58.701Z,97973.03
2023-11-23T09:53:28.072Z,97976.88
2023-11-23T09:55:57.791Z,97971.06
2023-11-23T09:58:26.550Z,97970.28
2023-11-23T10:00:56.446Z,97965.31
2023-11-23T10:03:26.912Z,97974.84
2023-11-23T10:05:55.316Z,97971.63
2023-11-23T10:08:23.782Z,97975.13
2023-11-23T10:10:53.363Z,97975.28
2023-11-23T10:13:21.794Z,97975.28
2023-11-23T10:15:50.869Z,97973.88
2023-11-23T10:18:21.223Z,97969.47
2023-11-23T10:20:50.972Z,97973.78
2023-11-23T10:23:22.642Z,97974.13
2023-11-23T10:25:51.308Z,97977.25
2023-11-23T10:28:21.149Z,97973.56
2023-11-23T10:30:50.976Z,97970.03
2023-11-23T10:33:21.233Z,97960.50
2023-11-23T10:35:52.217Z,97964.19
2023-11-23T10:38:32.426Z,97963.25
2023-11-23T10:41:10.774Z,97955.19
2023-11-23T10:43:39.676Z,97961.69
2023-11-23T10:46:09.968Z,97953.31
2023-11-23T10:48:39.847Z,97943.41
2023-11-23T10:51:08.724Z,97948.84
2023-11-23T10:53:41.944Z,97946.72
2023-11-23T10:56:18.295Z,97950.03
2023-11-23T10:58:48.343Z,97946.25
2023-11-23T11:01:23.522Z,97941.00
2023-11-23T11:03:52.552Z,97942.34
2023-11-23T11:06:23.470Z,97938.97
2023-11-23T11:08:51.950Z,97940.81
2023-11-23T11:11:24.427Z,97944.75
2023-11-23T11:14:06.489Z,97952.78
2023-11-23T11:16:40.941Z,97943.25
2023-11-23T11:19:10.098Z,97935.31
2023-11-23T11:21:45.978Z,97934.63
2023-11-23T11:24:26.085Z,97928.13
2023-11-23T11:27:02.892Z,97921.91
2023-11-23T11:29:34.858Z,97921.66
2023-11-23T11:32:09.740Z,97925.63
2023-11-23T11:34:41.392Z,97921.56
2023-11-23T11:37:11.627Z,97930.22
2023-11-23T11:39:41.522Z,97929.78
2023-11-23T11:42:12.786Z,97923.84
2023-11-23T11:44:45.068Z,97917.78
2023-11-23T11:47:16.295Z,97923.22
2023-11-23T11:49:44.868Z,97911.34
2023-11-23T11:52:16.124Z,97907.00
2023-11-23T11:54:44.786Z,97911.97
2023-11-23T11:57:13.722Z,97906.63
2023-11-23T11:59:43.242Z,97896.84
2023-11-23T12:02:13.025Z,97886.72
2023-11-23T12:04:44.273Z,97883.00
2023-11-23T12:07:18.426Z,97879.03
2023-11-23T12:09:54.761Z,97884.88
2023-11-23T12:12:24.596Z,97874.19
2023-11-23T12:14:53.162Z,97881.81
2023-11-23T12:17:22.021Z,97871.88
2023-11-23T12:19:56.385Z,97877.56
2023-11-23T12:22:28.185Z,97868.94
2023-11-23T12:24:58.025Z,97862.09
2023-11-23T12:27:29.532Z,97869.78
2023-11-23T12:29:57.947Z,97870.50
2023-11-23T12:32:26.464Z,97860.88
2023-11-23T12:34:56.053Z,97862.84
2023-11-23T12:37:24.617Z,97865.63
2023-11-23T12:39:56.268Z,97855.44
2023-11-23T12:42:24.975Z,97853.66
2023-11-23T12:44:53.354Z,97860.81
2023-11-23T12:47:27.638Z,97861.03
2023-11-23T12:49:56.454Z,97859.16
2023-11-23T12:52:24.820Z,97857.34
2023-11-23T12:54:53.235Z,97860.78
2023-11-23T12:57:21.808Z,97859.53
2023-11-23T12:59:50.207Z,97860.38
2023-11-23T13:02:19.444Z,97856.38
2023-11-23T13:04:48.179Z,97862.34
2023-11-23T13:07:18.575Z,97863.31
2023-11-23T13:09:50.283Z,97861.59
2023-11-23T13:12:19.796Z,97866.81
2023-11-23T13:14:51.034Z,97868.38
2023-11-23T13:17:22.842Z,97863.22
2023-11-23T13:19:52.749Z,97854.06
2023-11-23T13:22:21.488Z,97855.78
2023-11-23T13:24:49.981Z,97844.41
2023-11-23T13:27:20.421Z,97850.31
2023-11-23T13:29:49.773Z,97841.09
2023-11-23T13:32:20.974Z,97841.38
2023-11-23T13:34:51.132Z,97845.34
2023-11-23T13:37:21.877Z,97842.66
2023-11-23T13:39:50.636Z,97832.94
2023-11-23T13:42:20.572Z,97827.09
2023-11-23T13:44:49.122Z,97837.56
2023-11-23T13:47:17.520Z,97846.22
2023-11-23T13:49:45.975Z,97845.44
2023-11-23T13:52:18.918Z,97833.75
2023-11-23T13:54:48.967Z,97842.94
2023-11-23T13:57:17.678Z,97840.22
2023-11-23T13:59:46.524Z,97839.44
2023-11-23T14:02:18.180Z,97838.25
2023-11-23T14:04:50.457Z,97839.59
2023-11-23T14:07:19.050Z,97843.81
2023-11-23T14:09:47.674Z,97843.50
2023-11-23T14:12:16.186Z,97830.63
2023-11-23T14:14:46.472Z,97831.03
2023-11-23T14:17:15.366Z,97825.63
2023-11-23T14:19:43.776Z,97826.34
2023-11-23T14:22:12.445Z,97822.72
2023-11-23T14:24:41.072Z,97829.72
2023-11-23T14:27:10.381Z,97821.34
2023-11-23T14:29:39.360Z,97818.53
2023-11-23T14:32:07.902Z,97806.63
2023-11-23T14:34:45.622Z,97803.94
2023-11-23T14:37:15.142Z,97801.34
2023-11-23T14:39:46.406Z,97803.50
2023-11-23T14:42:14.981Z,97804.94
2023-11-23T14:44:45.792Z,97796.72
2023-11-23T14:47:15.623Z,97800.63
2023-11-23T14:49:44.110Z,97797.88
2023-11-23T14:52:12.563Z,97799.00
2023-11-23T14:54:41.163Z,97787.38
2023-11-23T14:57:09.736Z,97771.44
2023-11-23T14:59:38.365Z,97773.03
2023-11-23T15:02:08.536Z,97770.94
2023-11-23T15:04:37.476Z,97773.53
2023-11-23T15:07:06.120Z,97767.72
2023-11-23T15:09:34.656Z,97766.91
2023-11-23T15:12:04.355Z,97763.81
2023-11-23T15:14:33.196Z,97769.81
2023-11-23T15:17:02.649Z,97761.09
2023-11-23T15:19:36.042Z,97750.41
2023-11-23T15:22:07.618Z,97752.66
2023-11-23T15:24:36.968Z,97747.97
2023-11-23T15:27:06.742Z,97747.81
2023-11-23T15:29:35.872Z,97753.47
2023-11-23T15:32:05.272Z,97763.97
2023-11-23T15:34:33.787Z,97755.78
2023-11-23T15:37:02.230Z,97757.09
2023-11-23T15:39:30.934Z,97759.19
2023-11-23T15:41:59.411Z,97758.53
2023-11-23T15:44:29.201Z,97763.06
2023-11-23T15:46:57.716Z,97761.41
2023-11-23T15:49:28.470Z,97768.38
2023-11-23T15:51:57.014Z,97767.41
2023-11-23T15:54:28.426Z,97764.84
2023-11-23T15:56:56.843Z,97773.41
2023-11-23T15:59:26.338Z,97765.47
2023-11-23T16:01:55.841Z,97770.66
2023-11-23T16:04:24.956Z,97772.94
2023-11-23T16:06:54.127Z,97778.44
2023-11-23T16:09:24.601Z,97779.09
2023-11-23T16:11:53.217Z,97767.63
2023-11-23T16:14:23.066Z,97770.84
2023-11-23T16:16:52.474Z,97773.75
2023-11-23T16:19:21.624Z,97776.19
2023-11-23T16:21:51.584Z,97771.81
2023-11-23T16:24:22.296Z,97773.59
2023-11-23T16:26:51.219Z,97770.84
2023-11-23T16:29:19.573Z,97773.28
2023-11-23T16:31:48.496Z,97775.84
2023-11-23T16:34:18.478Z,97776.19
2023-11-23T16:36:47.362Z,97763.75
2023-11-23T16:39:17.127Z,97766.34
2023-11-23T16:41:45.716Z,97754.22
2023-11-23T16:44:16.266Z,97760.72
2023-11-23T16:46:46.033Z,97767.03
2023-11-23T16:49:14.762Z,97770.28
2023-11-23T16:51:43.160Z,97769.00
2023-11-23T16:54:11.875Z,97770.28
2023-11-23T16:56:40.694Z,97770.94
2023-11-23T16:59:11.735Z,97767.38
2023-11-23T17:01:41.915Z,97764.59
2023-11-23T17:04:11.877Z,97757.66
2023-11-23T17:06:43.422Z,97756.84
2023-11-23T17:09:12.039Z,97750.66
2023-11-23T17:11:40.737Z,97750.19
2023-11-23T17:14:12.501Z,97753.41
2023-11-23T17:16:41.424Z,97753.09
2023-11-23T17:19:09.973Z,97754.38
2023-11-23T17:21:38.534Z,97745.31
2023-11-23T17:24:07.654Z,97751.78
2023-11-23T17:26:36.190Z,97752.94
2023-11-23T17:29:04.854Z,97748.25
2023-11-23T17:31:35.038Z,97739.50
2023-11-23T17:34:03.541Z,97738.06
2023-11-23T17:36:32.111Z,97733.69
2023-11-23T17:39:03.666Z,97741.13
2023-11-23T17:41:33.727Z,97744.53
2023-11-23T17:44:02.127Z,97750.66
2023-11-23T17:46:30.645Z,97753.75
2023-11-23T17:49:00.011Z,97756.97
2023-11-23T17:51:28.524Z,97757.31
2023-11-23T17:53:56.960Z,97753.25
2023-11-23T17:56:25.426Z,97745.31
2023-11-23T17:59:01.259Z,97758.44
2023-11-23T18:01:38.121Z,97761.84
2023-11-23T18:04:06.881Z,97769.78
2023-11-23T18:06:35.411Z,97774.78
2023-11-23T18:09:08.742Z,97778.84
2023-11-23T18:11:38.787Z,97779.47
2023-11-23T18:14:07.114Z,97775.09
2023-11-23T18:16:36.130Z,97771.53
2023-11-23T18:19:04.692Z,97758.41
2023-11-23T18:21:34.018Z,97763.44
2023-11-23T18:24:02.465Z,97758.25
2023-11-23T18:26:30.869Z,97760.84
2023-11-23T18:28:59.805Z,97753.75
2023-11-23T18:31:28.581Z,97758.59
2023-11-23T18:33:57.107Z,97766.53
2023-11-23T18:36:26.913Z,97763.16
2023-11-23T18:38:55.381Z,97769.63
2023-11-23T18:41:23.772Z,97758.94
2023-11-23T18:43:53.183Z,97759.56
2023-11-23T18:46:22.080Z,97764.56
2023-11-23T18:48:50.643Z,97762.31
2023-11-23T18:51:20.293Z,97755.69
2023-11-23T18:53:48.753Z,97758.75
2023-11-23T18:56:17.197Z,97747.78
2023-11-23T18:58:46.871Z,97750.81
2023-11-23T19:01:17.350Z,97756.84
2023-11-23T19:03:47.341Z,97761.00
2023-11-23T19:06:17.560Z,97760.72
2023-11-23T19:08:47.083Z,97756.97
2023-11-23T19:11:15.554Z,97758.75
2023-11-23T19:13:43.931Z,97759.09
2023-11-23T19:16:12.390Z,97754.72
2023-11-23T19:18:43.532Z,97758.25
2023-11-23T19:21:14.307Z,97760.38
2023-11-23T19:23:43.098Z,97763.78
2023-11-23T19:26:11.703Z,97754.56
2023-11-23T19:28:42.349Z,97758.75
2023-11-23T19:31:14.554Z,97767.03
2023-11-23T19:33:43.685Z,97754.09
2023-11-23T19:36:12.768Z,97754.09
2023-11-23T19:38:41.608Z,97740.84
2023-11-23T19:41:10.791Z,97746.47
2023-11-23T19:43:39.857Z,97752.78
2023-11-23T19:46:10.230Z,97744.22
2023-11-23T19:48:39.254Z,97743.91
2023-11-23T19:51:08.356Z,97734.38
2023-11-23T19:53:42.503Z,97727.41
2023-11-23T19:56:10.885Z,97732.91
2023-11-23T19:58:39.217Z,97723.53
2023-11-23T20:01:09.136Z,97727.72
2023-11-23T20:03:37.796Z,97733.22
2023-11-23T20:06:07.313Z,97724.00
2023-11-23T20:08:35.770Z,97726.25
2023-11-23T20:11:04.232Z,97727.72
2023-11-23T20:13:32.689Z,97724.44
2023-11-23T20:16:02.216Z,97728.81
2023-11-23T20:18:31.056Z,97722.78
2023-11-23T20:20:59.604Z,97716.31
2023-11-23T20:23:28.162Z,97722.44
2023-11-23T20:25:56.569Z,97721.63
2023-11-23T20:28:25.111Z,97725.13
2023-11-23T20:30:53.657Z,97723.81
2023-11-23T20:33:22.534Z,97724.09
2023-11-23T20:35:50.996Z,97719.34
2023-11-23T20:38:19.463Z,97725.16
2023-11-23T20:40:47.824Z,97727.06
2023-11-23T20:43:16.364Z,97724.31
2023-11-23T20:45:44.692Z,97720.78
2023-11-23T20:48:13.231Z,97709.50
2023-11-23T20:50:42.212Z,97718.03
2023-11-23T20:53:10.627Z,97716.72
2023-11-23T20:55:39.368Z,97719.94
2023-11-23T20:58:07.881Z,97712.34
2023-11-23T21:00:37.306Z,97716.25
2023-11-23T21:03:06.210Z,97708.53
2023-11-23T21:05:35.361Z,97701.94
2023-11-23T21:08:04.830Z,97703.44
2023-11-23T21:10:34.261Z,97689.44
2023-11-23T21:13:02.795Z,97693.47
2023-11-23T21:15:31.875Z,97691.09
2023-11-23T21:18:00.384Z,97689.00
2023-11-23T21:20:29.806Z,97691.31
2023-11-23T21:22:58.247Z,97677.41
2023-11-23T21:25:26.668Z,97674.69
2023-11-23T21:27:55.108Z,97680.66
2023-11-23T21:30:23.562Z,97681.78
2023-11-23T21:32:51.963Z,97680.66
2023-11-23T21:35:23.220Z,97680.66
2023-11-23T21:37:51.935Z,97680.81
2023-11-23T21:40:21.589Z,97684.72
2023-11-23T21:42:49.962Z,97682.28
2023-11-23T21:45:18.551Z,97688.59
2023-11-23T21:47:47.161Z,97690.22
2023-11-23T21:50:15.545Z,97692.13
2023-11-23T21:52:44.614Z,97695.72
2023-11-23T21:55:13.183Z,97695.88
2023-11-23T21:57:42.777Z,97694.88
2023-11-23T22:00:13.667Z,97692.28
2023-11-23T22:02:43.656Z,97692.13
2023-11-23T22:05:13.103Z,97682.75
2023-11-23T22:07:41.864Z,97692.63
2023-11-23T22:10:10.332Z,97680.19
2023-11-23T22:12:39.012Z,97672.25
2023-11-23T22:15:08.543Z,97674.50
2023-11-23T22:17:37.183Z,97671.41
2023-11-23T22:20:06.694Z,97668.19
2023-11-23T22:22:36.126Z,97658.19
2023-11-23T22:25:05.732Z,97653.81
2023-11-23T22:27:34.979Z,97659.16
2023-11-23T22:30:03.590Z,97657.03
2023-11-23T22:32:32.873Z,97644.59
2023-11-23T22:35:01.495Z,97652.38
2023-11-23T22:37:31.960Z,97648.66
2023-11-23T22:40:00.497Z,97647.03
2023-11-23T22:42:29.453Z,97647.69
2023-11-23T22:44:58.063Z,97640.22
2023-11-23T22:47:26.511Z,97640.06
2023-11-23T22:49:55.398Z,97645.41
2023-11-23T22:52:24.598Z,97651.22
2023-11-23T22:54:53.021Z,97646.50
2023-11-23T22:57:21.456Z,97655.56
2023-11-23T22:59:50.042Z,97648.13
2023-11-23T23:02:20.010Z,97643.28
2023-11-23T23:04:48.713Z,97652.78
2023-11-23T23:07:17.363Z,97644.22
2023-11-23T23:09:47.929Z,97642.78
2023-11-23T23:12:16.342Z,97648.25
2023-11-23T23:14:45.456Z,97649.41
2023-11-23T23:17:14.842Z,97651.81
2023-11-23T23:19:43.260Z,97655.84
2023-11-23T23:22:23.922Z,97656.97
2023-11-23T23:24:55.659Z,97664.06
2023-11-23T23:27:24.174Z,97665.69
2023-11-23T23:29:52.602Z,97659.06
2023-11-23T23:32:23.567Z,97657.13
2023-11-23T23:34:52.802Z,97654.72
2023-11-23T23:37:21.791Z,97655.19
2023-11-23T23:39:50.290Z,97656.97
2023-11-23T23:42:18.989Z,97658.81
2023-11-23T23:44:47.486Z,97663.13
2023-11-23T23:47:16.547Z,97664.84
2023-11-23T23:49:45.090Z,97663.38
2023-11-23T23:52:13.542Z,97668.50
2023-11-23T23:54:43.434Z,97665.59
2023-11-23T23:57:11.808Z,97661.53
2023-11-23T23:59:40.279Z,97654.44
